createdAt,value
2022-09-10T00:00:39.811Z,1.85
2022-09-10T00:03:07.089Z,1.90
2022-09-10T00:05:44.650Z,1.90
2022-09-10T00:08:11.355Z,1.77
2022-09-10T00:10:46.427Z,1.70
2022-09-10T00:13:15.119Z,1.85
2022-09-10T00:15:48.223Z,1.90
2022-09-10T00:18:16.364Z,1.75
2022-09-10T00:20:47.848Z,2.10
2022-09-10T00:23:15.647Z,2.00
2022-09-10T00:25:42.129Z,1.67
2022-09-10T00:28:09.227Z,1.92
2022-09-10T00:30:43.671Z,2.17
2022-09-10T00:33:10.133Z,2.13
2022-09-10T00:35:37.283Z,2.10
2022-09-10T00:38:04.260Z,2.63
2022-09-10T00:40:31.012Z,1.90
2022-09-10T00:42:58.007Z,2.15
2022-09-10T00:45:27.694Z,2.00
2022-09-10T00:47:58.888Z,2.10
2022-09-10T00:50:29.217Z,2.30
2022-09-10T00:53:00.374Z,1.98
2022-09-10T00:55:27.706Z,2.10
2022-09-10T00:57:57.942Z,1.85
2022-09-10T01:00:24.843Z,2.03
2022-09-10T01:02:51.187Z,2.20
2022-09-10T01:05:19.267Z,2.25
2022-09-10T01:07:45.630Z,2.80
2022-09-10T01:10:16.389Z,2.08
2022-09-10T01:13:05.320Z,2.30
2022-09-10T01:15:50.477Z,2.13
2022-09-10T01:20:58.480Z,2.40
2022-09-10T01:23:49.316Z,3.40
2022-09-10T01:26:36.943Z,2.28
2022-09-10T01:29:20.356Z,2.40
2022-09-10T01:32:06.531Z,2.53
2022-09-10T01:34:41.191Z,2.40
2022-09-10T01:37:15.787Z,2.60
2022-09-10T01:39:42.255Z,2.90
2022-09-10T01:42:08.585Z,2.78
2022-09-10T01:44:43.263Z,2.67
2022-09-10T01:47:27.209Z,2.88
2022-09-10T01:49:58.223Z,3.03
2022-09-10T01:52:42.906Z,3.10
2022-09-10T01:55:33.034Z,2.90
2022-09-10T01:58:12.403Z,3.40
2022-09-10T02:00:44.503Z,2.60
2022-09-10T02:03:18.649Z,2.92
2022-09-10T02:05:49.882Z,3.17
2022-09-10T02:08:21.759Z,3.30
2022-09-10T02:11:00.163Z,3.55
2022-09-10T02:13:28.454Z,3.60
2022-09-10T02:15:55.098Z,3.90
2022-09-10T02:18:22.875Z,3.33
2022-09-10T02:20:52.249Z,3.25
2022-09-10T02:23:23.787Z,3.63
2022-09-10T02:25:50.132Z,3.58
2022-09-10T02:28:16.680Z,3.10
2022-09-10T02:30:42.978Z,3.42
2022-09-10T02:33:09.271Z,3.08
2022-09-10T02:35:35.566Z,3.30
2022-09-10T02:38:01.861Z,4.10
2022-09-10T02:40:28.149Z,3.50
2022-09-10T02:42:54.452Z,3.50
2022-09-10T02:45:20.939Z,3.60
2022-09-10T02:47:47.280Z,3.40
2022-09-10T02:50:13.614Z,4.00
2022-09-10T02:52:39.911Z,4.15
2022-09-10T02:55:06.767Z,3.85
2022-09-10T02:57:33.072Z,4.10
2022-09-10T02:59:59.352Z,3.95
2022-09-10T03:02:25.663Z,3.80
2022-09-10T03:04:51.934Z,4.20
2022-09-10T03:07:18.248Z,4.20
2022-09-10T03:09:44.519Z,4.05
2022-09-10T03:12:10.795Z,3.97
2022-09-10T03:14:37.100Z,4.30
2022-09-10T03:17:03.543Z,3.97
2022-09-10T03:19:29.854Z,3.90
2022-09-10T03:21:56.139Z,3.22
2022-09-10T03:24:22.447Z,3.30
2022-09-10T03:26:48.741Z,3.58
2022-09-10T03:29:15.052Z,4.20
2022-09-10T03:31:41.391Z,2.97
2022-09-10T03:34:10.168Z,3.38
2022-09-10T03:36:36.578Z,3.03
2022-09-10T03:39:02.951Z,3.50
2022-09-10T03:41:29.246Z,2.92
2022-09-10T03:43:55.555Z,3.33
2022-09-10T03:46:22.055Z,3.75
2022-09-10T03:48:51.025Z,3.50
2022-09-10T03:51:21.017Z,3.58
2022-09-10T03:53:47.310Z,4.45
2022-09-10T03:56:13.589Z,3.30
2022-09-10T03:58:40.036Z,4.10
2022-09-10T04:01:06.612Z,3.83
2022-09-10T04:03:32.993Z,3.60
2022-09-10T04:05:59.277Z,3.30
2022-09-10T04:08:25.655Z,3.83
2022-09-10T04:10:51.944Z,3.60
2022-09-10T04:13:18.228Z,3.47
2022-09-10T04:15:44.552Z,3.80
2022-09-10T04:18:11.112Z,3.70
2022-09-10T04:20:37.460Z,3.33
2022-09-10T04:23:04.339Z,3.33
2022-09-10T04:25:31.196Z,3.00
2022-09-10T04:27:57.507Z,3.22
2022-09-10T04:30:23.817Z,3.28
2022-09-10T04:32:50.098Z,3.20
2022-09-10T04:35:16.423Z,3.30
2022-09-10T04:37:42.768Z,3.20
2022-09-10T04:40:10.146Z,3.40
2022-09-10T04:42:36.467Z,3.40
2022-09-10T04:45:02.862Z,3.70
2022-09-10T04:47:29.138Z,3.42
2022-09-10T04:49:55.426Z,2.88
2022-09-10T04:52:21.870Z,3.30
2022-09-10T04:54:48.779Z,3.25
2022-09-10T04:57:15.251Z,2.85
2022-09-10T04:59:41.706Z,2.95
2022-09-10T05:02:08.067Z,3.63
2022-09-10T05:04:34.673Z,3.05
2022-09-10T05:07:01.363Z,3.17
2022-09-10T05:09:27.847Z,2.95
2022-09-10T05:11:54.126Z,2.88
2022-09-10T05:14:20.433Z,3.33
2022-09-10T05:16:46.787Z,3.55
2022-09-10T05:19:13.108Z,3.42
2022-09-10T05:21:39.402Z,3.40
2022-09-10T05:24:05.930Z,2.80
2022-09-10T05:26:32.222Z,3.47
2022-09-10T05:28:58.500Z,2.97
2022-09-10T05:31:24.805Z,3.30
2022-09-10T05:33:51.123Z,3.08
2022-09-10T05:36:17.435Z,3.22
2022-09-10T05:38:43.923Z,3.42
2022-09-10T05:41:10.853Z,3.40
2022-09-10T05:43:37.247Z,3.08
2022-09-10T05:46:04.386Z,2.78
2022-09-10T05:48:30.685Z,3.00
2022-09-10T05:50:57.366Z,2.47
2022-09-10T05:53:23.720Z,2.45
2022-09-10T05:55:50.015Z,2.40
2022-09-10T05:58:16.314Z,2.80
2022-09-10T06:00:42.658Z,2.85
2022-09-10T06:03:09.246Z,2.50
2022-09-10T06:05:35.820Z,2.40
2022-09-10T06:08:06.525Z,1.80
2022-09-10T06:10:34.791Z,2.10
2022-09-10T06:13:01.100Z,1.35
2022-09-10T06:15:27.404Z,1.65
2022-09-10T06:17:53.681Z,1.77
2022-09-10T06:20:19.985Z,1.80
2022-09-10T06:22:46.338Z,1.48
2022-09-10T06:25:12.641Z,1.30
2022-09-10T06:27:38.946Z,1.10
2022-09-10T06:30:05.652Z,1.35
2022-09-10T06:32:32.011Z,1.42
2022-09-10T06:34:58.348Z,1.17
2022-09-10T06:37:24.643Z,1.33
2022-09-10T06:39:50.978Z,1.20
2022-09-10T06:42:17.274Z,1.42
2022-09-10T06:44:43.577Z,1.40
2022-09-10T06:49:56.134Z,1.17
2022-09-10T06:52:22.431Z,1.30
2022-09-10T06:54:48.719Z,1.33
2022-09-10T06:57:15.010Z,1.60
2022-09-10T06:59:41.295Z,1.50
2022-09-10T07:02:08.498Z,1.70
2022-09-10T07:04:34.818Z,1.60
2022-09-10T07:07:01.121Z,2.38
2022-09-10T07:09:27.402Z,2.20
2022-09-10T07:11:53.711Z,2.10
2022-09-10T07:14:20.015Z,2.00
2022-09-10T07:16:46.309Z,2.50
2022-09-10T07:19:12.682Z,2.53
2022-09-10T07:21:38.978Z,3.00
2022-09-10T07:24:05.859Z,2.42
2022-09-10T07:26:32.547Z,2.60
2022-09-10T07:29:00.608Z,2.22
2022-09-10T07:31:32.162Z,2.38
2022-09-10T07:33:58.450Z,2.70
2022-09-10T07:36:25.386Z,2.20
2022-09-10T07:38:53.403Z,2.30
2022-09-10T07:41:20.187Z,2.13
2022-09-10T07:43:46.657Z,2.17
2022-09-10T07:46:17.903Z,1.90
2022-09-10T07:48:44.265Z,1.90
2022-09-10T07:51:10.631Z,2.40
2022-09-10T07:53:37.253Z,2.00
2022-09-10T07:56:08.156Z,2.38
2022-09-10T07:58:35.550Z,2.28
2022-09-10T08:01:06.055Z,2.33
2022-09-10T08:03:32.408Z,2.72
2022-09-10T08:06:02.912Z,3.22
2022-09-10T08:08:30.695Z,2.35
2022-09-10T08:11:18.202Z,2.90
2022-09-10T08:13:49.721Z,3.42
2022-09-10T08:16:25.206Z,2.85
2022-09-10T08:18:51.769Z,2.85
2022-09-10T08:21:19.155Z,2.80
2022-09-10T08:23:54.330Z,3.55
2022-09-10T08:26:22.183Z,3.53
2022-09-10T08:28:48.564Z,3.08
2022-09-10T08:31:14.994Z,3.03
2022-09-10T08:33:41.599Z,3.33
2022-09-10T08:36:10.927Z,3.70
2022-09-10T08:38:39.416Z,3.65
2022-09-10T08:41:22.069Z,3.78
2022-09-10T08:44:10.518Z,3.40
2022-09-10T08:46:40.547Z,3.60
2022-09-10T08:49:42.183Z,3.58
2022-09-10T08:52:19.095Z,4.30
2022-09-10T08:54:57.390Z,4.45
2022-09-10T08:57:27.906Z,3.70
2022-09-10T08:59:56.669Z,3.97
2022-09-10T09:02:48.383Z,4.00
2022-09-10T09:05:18.531Z,3.42
2022-09-10T09:07:45.872Z,3.42
2022-09-10T09:10:30.159Z,3.75
2022-09-10T09:13:26.770Z,4.13
2022-09-10T09:16:31.856Z,4.15
2022-09-10T09:19:12.767Z,3.78
2022-09-10T09:21:53.465Z,4.22
2022-09-10T09:24:28.611Z,3.40
2022-09-10T09:27:01.685Z,3.63
2022-09-10T09:29:34.605Z,3.83
2022-09-10T09:32:04.062Z,3.92
2022-09-10T09:34:49.920Z,4.35
2022-09-10T09:37:26.591Z,3.80
2022-09-10T09:40:27.194Z,3.75
2022-09-10T09:43:28.660Z,4.10
2022-09-10T09:45:55.242Z,3.08
2022-09-10T09:48:22.984Z,3.47
2022-09-10T09:50:53.846Z,3.47
2022-09-10T09:53:26.227Z,3.40
2022-09-10T09:55:58.273Z,3.35
2022-09-10T09:58:24.537Z,3.90
2022-09-10T10:01:05.970Z,3.72
2022-09-10T10:03:46.751Z,3.40
2022-09-10T10:06:13.239Z,3.42
2022-09-10T10:08:44.125Z,4.07
2022-09-10T10:11:15.571Z,3.20
2022-09-10T10:13:45.315Z,3.80
2022-09-10T10:16:22.799Z,3.35
2022-09-10T10:18:50.368Z,3.08
2022-09-10T10:21:45.752Z,3.08
2022-09-10T10:26:59.085Z,2.90
2022-09-10T10:29:26.349Z,3.60
2022-09-10T10:31:53.574Z,4.40
2022-09-10T10:34:22.905Z,3.95
2022-09-10T10:36:55.280Z,3.80
2022-09-10T10:39:43.518Z,4.10
2022-09-10T10:42:42.321Z,3.72
2022-09-10T10:45:28.590Z,3.38
2022-09-10T10:48:20.100Z,3.45
2022-09-10T10:51:11.137Z,3.35
2022-09-10T10:53:45.959Z,2.78
2022-09-10T10:56:32.174Z,2.72
2022-09-10T10:59:32.859Z,3.00
2022-09-10T11:02:22.184Z,3.00
2022-09-10T11:04:51.399Z,3.03
2022-09-10T11:07:37.544Z,2.50
2022-09-10T11:10:14.533Z,2.08
2022-09-10T11:12:50.105Z,1.90
2022-09-10T11:15:31.671Z,1.90
2022-09-10T11:18:05.470Z,2.28
2022-09-10T11:20:37.494Z,1.53
2022-09-10T11:23:12.682Z,1.40
2022-09-10T11:25:50.586Z,1.38
2022-09-10T11:28:23.744Z,1.20
2022-09-10T11:30:58.045Z,1.77
2022-09-10T11:33:36.301Z,1.60
2022-09-10T11:36:11.151Z,1.48
2022-09-10T11:39:16.677Z,1.52
2022-09-10T11:41:46.292Z,1.40
2022-09-10T11:44:15.362Z,1.77
2022-09-10T11:47:08.883Z,1.40
2022-09-10T11:49:39.154Z,1.67
2022-09-10T11:52:05.484Z,1.40
2022-09-10T11:54:35.364Z,1.40
2022-09-10T11:57:14.662Z,1.42
2022-09-10T12:00:09.134Z,1.48
2022-09-10T12:03:00.309Z,1.60
2022-09-10T12:05:44.871Z,1.40
2022-09-10T12:08:23.437Z,1.70
2022-09-10T12:11:11.798Z,1.50
2022-09-10T12:13:39.061Z,1.65
2022-09-10T12:16:36.085Z,1.38
2022-09-10T12:19:08.317Z,1.60
2022-09-10T12:21:41.259Z,1.30
2022-09-10T12:24:23.040Z,1.58
2022-09-10T12:26:49.605Z,1.95
2022-09-10T12:29:32.086Z,1.75
2022-09-10T12:32:20.078Z,1.80
2022-09-10T12:34:47.817Z,1.77
2022-09-10T12:37:26.053Z,1.60
2022-09-10T12:40:26.367Z,1.70
2022-09-10T12:42:58.039Z,2.63
2022-09-10T12:46:03.885Z,2.35
2022-09-10T12:48:32.722Z,2.47
2022-09-10T12:50:59.622Z,2.22
2022-09-10T12:53:46.365Z,2.30
2022-09-10T12:56:37.699Z,3.20
2022-09-10T12:59:21.441Z,2.40
2022-09-10T13:01:50.186Z,2.45
2022-09-10T13:04:28.029Z,2.40
2022-09-10T13:06:58.678Z,2.40
2022-09-10T13:09:43.167Z,2.50
2022-09-10T13:12:22.429Z,2.35
2022-09-10T13:14:52.701Z,2.70
2022-09-10T13:17:35.972Z,2.95
2022-09-10T13:20:20.436Z,2.60
2022-09-10T13:23:08.226Z,3.17
2022-09-10T13:25:41.849Z,2.90
2022-09-10T13:28:31.429Z,5.22
2022-09-10T13:31:09.735Z,2.72
2022-09-10T13:33:51.459Z,2.25
2022-09-10T13:36:29.966Z,4.95
2022-09-10T13:39:17.088Z,3.03
2022-09-10T13:42:01.881Z,2.20
2022-09-10T13:44:59.454Z,2.30
2022-09-10T13:47:37.470Z,2.03
2022-09-10T13:50:17.553Z,2.10
2022-09-10T13:52:46.991Z,2.05
2022-09-10T13:55:20.245Z,2.22
2022-09-10T13:57:50.055Z,2.30
2022-09-10T14:00:21.000Z,2.47
2022-09-10T14:02:58.700Z,2.55
2022-09-10T14:06:12.597Z,2.20
2022-09-10T14:08:56.059Z,3.05
2022-09-10T14:11:34.901Z,2.70
2022-09-10T14:14:20.798Z,2.70
2022-09-10T14:16:54.016Z,2.22
2022-09-10T14:19:28.810Z,2.65
2022-09-10T14:21:55.541Z,2.95
2022-09-10T14:24:32.391Z,2.60
2022-09-10T14:27:22.432Z,2.67
2022-09-10T14:29:48.903Z,2.35
2022-09-10T14:32:32.538Z,3.10
2022-09-10T14:35:01.182Z,2.40
2022-09-10T14:37:34.211Z,3.03
2022-09-10T14:40:20.790Z,2.70
2022-09-10T14:42:49.163Z,2.67
2022-09-10T14:45:38.675Z,2.47
2022-09-10T14:48:05.138Z,2.13
2022-09-10T14:50:33.175Z,2.50
2022-09-10T14:52:59.845Z,2.10
2022-09-10T14:55:30.361Z,2.92
2022-09-10T14:57:57.214Z,3.38
2022-09-10T15:00:24.270Z,2.80
2022-09-10T15:02:55.071Z,3.10
2022-09-10T15:05:21.586Z,2.90
2022-09-10T15:07:47.985Z,2.90
2022-09-10T15:10:14.537Z,3.38
2022-09-10T15:12:45.085Z,3.47
2022-09-10T15:15:17.427Z,4.20
2022-09-10T15:17:44.065Z,3.75
2022-09-10T15:20:15.458Z,3.38
2022-09-10T15:22:41.818Z,3.50
2022-09-10T15:25:35.983Z,2.58
2022-09-10T15:28:04.669Z,3.00
2022-09-10T15:30:31.043Z,3.58
2022-09-10T15:32:57.366Z,3.63
2022-09-10T15:35:24.865Z,2.97
2022-09-10T15:37:51.221Z,2.75
2022-09-10T15:40:17.663Z,2.95
2022-09-10T15:42:44.016Z,3.20
2022-09-10T15:45:10.578Z,3.33
2022-09-10T15:47:37.972Z,3.67
2022-09-10T15:50:04.800Z,3.40
2022-09-10T15:52:31.114Z,3.70
2022-09-10T15:54:57.477Z,2.95
2022-09-10T15:57:23.869Z,3.25
2022-09-10T15:59:50.213Z,2.60
2022-09-10T16:02:16.708Z,2.92
2022-09-10T16:04:43.297Z,2.40
2022-09-10T16:07:10.065Z,1.95
2022-09-10T16:09:36.552Z,2.10
2022-09-10T16:12:04.062Z,2.03
2022-09-10T16:14:30.368Z,1.80
2022-09-10T16:16:56.722Z,2.40
2022-09-10T16:19:23.054Z,1.83
2022-09-10T16:21:49.406Z,4.85
2022-09-10T16:24:15.855Z,6.63
2022-09-10T16:26:43.166Z,1.90
2022-09-10T16:29:17.472Z,1.50
2022-09-10T16:31:44.205Z,1.70
2022-09-10T16:34:12.284Z,1.85
2022-09-10T16:36:39.220Z,1.38
2022-09-10T16:39:08.268Z,1.40
2022-09-10T16:41:34.696Z,1.48
2022-09-10T16:44:01.544Z,1.67
2022-09-10T16:46:28.220Z,1.70
2022-09-10T16:48:55.886Z,1.60
2022-09-10T16:51:24.490Z,1.70
2022-09-10T16:53:56.697Z,1.80
2022-09-10T16:56:25.273Z,1.95
2022-09-10T16:58:51.783Z,1.65
2022-09-10T17:01:18.242Z,1.98
2022-09-10T17:03:46.574Z,1.70
2022-09-10T17:06:16.499Z,2.08
2022-09-10T17:08:42.896Z,2.20
2022-09-10T17:11:09.304Z,2.20
2022-09-10T17:13:35.778Z,2.10
2022-09-10T17:16:13.273Z,2.22
2022-09-10T17:18:39.645Z,2.17
2022-09-10T17:21:06.028Z,2.63
2022-09-10T17:23:32.426Z,2.42
2022-09-10T17:26:04.519Z,2.63
2022-09-10T17:28:30.876Z,2.88
2022-09-10T17:30:57.464Z,2.90
2022-09-10T17:33:27.239Z,2.53
2022-09-10T17:36:04.117Z,2.72
2022-09-10T17:38:32.161Z,2.70
2022-09-10T17:41:01.142Z,2.80
2022-09-10T17:43:29.654Z,2.85
2022-09-10T17:45:56.195Z,2.97
2022-09-10T17:48:26.363Z,3.90
2022-09-10T17:50:54.526Z,3.22
2022-09-10T17:53:20.914Z,3.35
2022-09-10T17:55:47.251Z,3.10
2022-09-10T17:58:14.002Z,2.55
2022-09-10T18:00:42.822Z,2.80
2022-09-10T18:03:12.983Z,2.70
2022-09-10T18:05:39.845Z,3.10
2022-09-10T18:08:06.465Z,2.97
2022-09-10T18:10:34.066Z,2.75
2022-09-10T18:13:00.639Z,3.10
2022-09-10T18:15:28.603Z,2.80
2022-09-10T18:17:56.390Z,2.90
2022-09-10T18:20:22.695Z,2.78
2022-09-10T18:22:49.501Z,2.40
2022-09-10T18:25:15.864Z,2.50
2022-09-10T18:27:42.242Z,2.65
2022-09-10T18:30:09.801Z,2.53
2022-09-10T18:32:36.098Z,2.80
2022-09-10T18:35:02.470Z,2.88
2022-09-10T18:37:28.824Z,2.72
2022-09-10T18:39:55.200Z,2.63
2022-09-10T18:42:21.611Z,2.50
2022-09-10T18:44:48.047Z,2.95
2022-09-10T18:47:34.080Z,2.90
2022-09-10T18:50:00.837Z,2.60
2022-09-10T18:52:27.990Z,2.65
2022-09-10T18:54:54.617Z,3.03
2022-09-10T18:57:20.977Z,2.60
2022-09-10T18:59:47.510Z,2.90
2022-09-10T19:02:13.974Z,3.00
2022-09-10T19:05:00.451Z,2.92
2022-09-10T19:07:26.729Z,2.90
2022-09-10T19:09:53.056Z,3.45
2022-09-10T19:12:19.435Z,2.90
2022-09-10T19:14:45.743Z,3.15
2022-09-10T19:17:12.111Z,3.47
2022-09-10T19:19:38.414Z,2.92
2022-09-10T19:22:05.615Z,3.15
2022-09-10T19:24:53.465Z,2.67
2022-09-10T19:27:18.371Z,3.10
2022-09-10T19:29:44.731Z,3.03
2022-09-10T19:32:11.096Z,2.58
2022-09-10T19:34:37.394Z,3.15
2022-09-10T19:37:03.853Z,3.00
2022-09-10T19:39:30.177Z,3.00
2022-09-10T19:41:56.511Z,3.20
2022-09-10T19:44:22.850Z,3.22
2022-09-10T19:46:49.144Z,3.47
2022-09-10T19:49:15.463Z,3.00
2022-09-10T19:51:41.747Z,3.67
2022-09-10T19:54:11.751Z,3.50
2022-09-10T19:56:41.188Z,3.92
2022-09-10T19:59:08.031Z,3.75
2022-09-10T20:01:37.612Z,3.78
2022-09-10T20:04:07.699Z,3.45
2022-09-10T20:06:34.963Z,3.40
2022-09-10T20:09:05.429Z,3.38
2022-09-10T20:11:33.985Z,3.60
2022-09-10T20:14:10.065Z,3.72
2022-09-10T20:16:38.829Z,3.67
2022-09-10T20:19:06.656Z,4.00
2022-09-10T20:21:34.392Z,4.55
2022-09-10T20:24:01.243Z,4.32
2022-09-10T20:26:31.269Z,4.97
2022-09-10T20:29:02.632Z,5.53
2022-09-10T20:31:31.370Z,4.35
2022-09-10T20:34:03.105Z,5.70
2022-09-10T20:36:30.504Z,7.10
2022-09-10T20:38:57.013Z,8.88
2022-09-10T20:41:24.588Z,11.38
2022-09-10T20:43:52.437Z,10.70
2022-09-10T20:46:21.238Z,11.98
2022-09-10T20:48:49.427Z,13.13
2022-09-10T20:51:16.100Z,12.80
2022-09-10T20:53:42.404Z,13.52
2022-09-10T20:56:12.746Z,13.15
2022-09-10T20:58:39.227Z,13.68
2022-09-10T21:01:19.930Z,12.30
2022-09-10T21:03:48.040Z,13.13
2022-09-10T21:06:17.262Z,12.65
2022-09-10T21:08:43.751Z,12.43
2022-09-10T21:11:13.128Z,12.25
2022-09-10T21:13:50.949Z,10.82
2022-09-10T21:16:34.572Z,10.45
2022-09-10T21:19:03.555Z,10.68
2022-09-10T21:21:32.308Z,11.18
2022-09-10T21:24:00.817Z,10.52
2022-09-10T21:26:29.943Z,11.20
2022-09-10T21:28:58.666Z,9.88
2022-09-10T21:31:26.911Z,9.30
2022-09-10T21:33:58.386Z,8.85
2022-09-10T21:36:27.682Z,8.85
2022-09-10T21:38:56.866Z,9.75
2022-09-10T21:41:32.202Z,7.97
2022-09-10T21:44:00.862Z,8.02
2022-09-10T21:46:27.787Z,7.95
2022-09-10T21:48:54.192Z,8.65
2022-09-10T21:51:21.126Z,8.18
2022-09-10T21:53:48.245Z,9.02
2022-09-10T21:56:16.775Z,10.10
2022-09-10T21:58:45.496Z,10.18
2022-09-10T22:01:14.665Z,10.50
2022-09-10T22:03:41.099Z,10.57
2022-09-10T22:06:09.873Z,10.43
2022-09-10T22:08:37.679Z,9.95
2022-09-10T22:11:10.354Z,10.05
2022-09-10T22:13:36.654Z,10.02
2022-09-10T22:16:04.399Z,10.02
2022-09-10T22:18:30.778Z,9.82
2022-09-10T22:20:58.254Z,9.18
2022-09-10T22:23:24.567Z,7.90
2022-09-10T22:25:50.848Z,7.95
2022-09-10T22:28:17.146Z,7.05
2022-09-10T22:30:43.444Z,7.25
2022-09-10T22:33:09.751Z,8.25
2022-09-10T22:35:36.048Z,7.18
2022-09-10T22:38:02.331Z,7.90
2022-09-10T22:40:28.640Z,7.53
2022-09-10T22:42:54.927Z,7.78
2022-09-10T22:45:21.214Z,8.90
2022-09-10T22:47:48.270Z,8.93
2022-09-10T22:50:14.853Z,9.55
2022-09-10T22:52:41.235Z,9.98
2022-09-10T22:55:08.102Z,9.90
2022-09-10T22:57:34.420Z,10.20
2022-09-10T23:00:00.814Z,9.38
2022-09-10T23:02:27.126Z,9.35
2022-09-10T23:04:53.422Z,10.88
2022-09-10T23:07:19.722Z,11.98
2022-09-10T23:09:45.994Z,11.88
2022-09-10T23:12:12.302Z,12.15
2022-09-10T23:14:38.586Z,11.55
2022-09-10T23:17:04.901Z,11.02
2022-09-10T23:19:31.202Z,12.77
2022-09-10T23:21:57.496Z,12.45
2022-09-10T23:24:25.203Z,13.75
2022-09-10T23:26:52.271Z,13.82
2022-09-10T23:29:18.745Z,14.00
2022-09-10T23:31:45.887Z,13.05
2022-09-10T23:34:14.855Z,13.90
2022-09-10T23:36:44.256Z,15.98
2022-09-10T23:39:16.446Z,12.50
2022-09-10T23:41:42.731Z,16.80
2022-09-10T23:44:09.385Z,17.73
2022-09-10T23:46:36.568Z,18.42
2022-09-10T23:49:03.501Z,21.40
2022-09-10T23:51:29.914Z,23.30
2022-09-10T23:53:56.187Z,24.13
2022-09-10T23:56:23.592Z,23.27
2022-09-10T23:58:49.919Z,21.55
